sensor_id;sensor_type;location;lat;lon;timestamp;P1;durP1;ratioP1;P2;durP2;ratioP2
43297;SDS011;28892;55.640;37.532;2023-05-13T00:01:28;14.00;;;5.72;;
43297;SDS011;28892;55.640;37.532;2023-05-13T00:03:54;6.70;;;4.25;;
43297;SDS011;28892;55.640;37.532;2023-05-13T00:06:22;7.97;;;4.88;;
43297;SDS011;28892;55.640;37.532;2023-05-13T00:11:40;12.40;;;4.78;;
43297;SDS011;28892;55.640;37.532;2023-05-13T00:14:07;7.47;;;4.97;;
43297;SDS011;28892;55.640;37.532;2023-05-13T00:17:12;6.70;;;5.30;;
43297;SDS011;28892;55.640;37.532;2023-05-13T00:19:43;6.00;;;4.75;;
43297;SDS011;28892;55.640;37.532;2023-05-13T00:25:06;8.35;;;5.10;;
43297;SDS011;28892;55.640;37.532;2023-05-13T00:27:35;8.88;;;5.35;;
43297;SDS011;28892;55.640;37.532;2023-05-13T00:30:05;10.18;;;5.57;;
43297;SDS011;28892;55.640;37.532;2023-05-13T00:32:33;8.73;;;5.18;;
43297;SDS011;28892;55.640;37.532;2023-05-13T00:34:59;8.63;;;5.47;;
43297;SDS011;28892;55.640;37.532;2023-05-13T00:37:26;10.50;;;6.30;;
43297;SDS011;28892;55.640;37.532;2023-05-13T00:39:52;7.70;;;5.60;;
43297;SDS011;28892;55.640;37.532;2023-05-13T00:42:17;7.70;;;5.50;;
43297;SDS011;28892;55.640;37.532;2023-05-13T00:44:43;8.60;;;5.95;;
43297;SDS011;28892;55.640;37.532;2023-05-13T00:47:10;10.48;;;5.40;;
43297;SDS011;28892;55.640;37.532;2023-05-13T00:49:45;6.63;;;5.32;;
43297;SDS011;28892;55.640;37.532;2023-05-13T00:52:17;11.75;;;5.63;;
43297;SDS011;28892;55.640;37.532;2023-05-13T00:54:43;7.20;;;5.30;;
43297;SDS011;28892;55.640;37.532;2023-05-13T00:57:12;7.43;;;5.38;;
43297;SDS011;28892;55.640;37.532;2023-05-13T00:59:50;8.40;;;5.78;;
43297;SDS011;28892;55.640;37.532;2023-05-13T01:02:35;8.27;;;5.57;;
43297;SDS011;28892;55.640;37.532;2023-05-13T01:11:55;7.75;;;5.28;;
43297;SDS011;28892;55.640;37.532;2023-05-13T01:14:53;7.07;;;5.13;;
43297;SDS011;28892;55.640;37.532;2023-05-13T01:22:03;8.55;;;4.97;;
43297;SDS011;28892;55.640;37.532;2023-05-13T01:24:34;6.30;;;5.30;;
43297;SDS011;28892;55.640;37.532;2023-05-13T01:27:02;8.38;;;5.32;;
43297;SDS011;28892;55.640;37.532;2023-05-13T01:29:31;8.57;;;5.38;;
43297;SDS011;28892;55.640;37.532;2023-05-13T01:32:01;8.80;;;5.87;;
43297;SDS011;28892;55.640;37.532;2023-05-13T01:34:32;10.50;;;5.20;;
43297;SDS011;28892;55.640;37.532;2023-05-13T01:36:59;9.77;;;5.32;;
43297;SDS011;28892;55.640;37.532;2023-05-13T01:39:29;8.15;;;5.60;;
43297;SDS011;28892;55.640;37.532;2023-05-13T01:42:00;9.60;;;5.57;;
43297;SDS011;28892;55.640;37.532;2023-05-13T01:44:29;8.73;;;5.10;;
43297;SDS011;28892;55.640;37.532;2023-05-13T01:46:59;7.68;;;5.25;;
43297;SDS011;28892;55.640;37.532;2023-05-13T01:49:30;7.50;;;5.40;;
43297;SDS011;28892;55.640;37.532;2023-05-13T01:51:56;11.40;;;5.50;;
43297;SDS011;28892;55.640;37.532;2023-05-13T01:54:25;10.27;;;6.00;;
43297;SDS011;28892;55.640;37.532;2023-05-13T01:56:56;8.90;;;5.60;;
43297;SDS011;28892;55.640;37.532;2023-05-13T01:59:24;8.13;;;5.20;;
43297;SDS011;28892;55.640;37.532;2023-05-13T02:01:51;9.68;;;5.55;;
43297;SDS011;28892;55.640;37.532;2023-05-13T02:04:21;7.97;;;5.82;;
43297;SDS011;28892;55.640;37.532;2023-05-13T02:06:54;8.98;;;5.63;;
43297;SDS011;28892;55.640;37.532;2023-05-13T02:12:32;12.93;;;5.88;;
43297;SDS011;28892;55.640;37.532;2023-05-13T02:15:09;8.27;;;5.70;;
43297;SDS011;28892;55.640;37.532;2023-05-13T02:17:56;10.70;;;5.80;;
43297;SDS011;28892;55.640;37.532;2023-05-13T02:20:51;9.27;;;5.68;;
43297;SDS011;28892;55.640;37.532;2023-05-13T02:23:18;9.95;;;5.75;;
43297;SDS011;28892;55.640;37.532;2023-05-13T02:25:50;9.68;;;5.85;;
43297;SDS011;28892;55.640;37.532;2023-05-13T02:28:33;10.13;;;6.13;;
43297;SDS011;28892;55.640;37.532;2023-05-13T02:30:59;10.10;;;6.50;;
43297;SDS011;28892;55.640;37.532;2023-05-13T02:37:29;9.60;;;6.35;;
43297;SDS011;28892;55.640;37.532;2023-05-13T02:40:04;8.10;;;6.13;;
43297;SDS011;28892;55.640;37.532;2023-05-13T02:42:33;7.85;;;5.35;;
43297;SDS011;28892;55.640;37.532;2023-05-13T02:45:08;10.13;;;4.95;;
43297;SDS011;28892;55.640;37.532;2023-05-13T02:47:46;7.53;;;5.00;;
43297;SDS011;28892;55.640;37.532;2023-05-13T02:50:17;6.28;;;5.35;;
43297;SDS011;28892;55.640;37.532;2023-05-13T02:56:16;12.52;;;5.80;;
43297;SDS011;28892;55.640;37.532;2023-05-13T02:58:51;10.23;;;5.05;;
43297;SDS011;28892;55.640;37.532;2023-05-13T03:05:41;10.35;;;4.78;;
43297;SDS011;28892;55.640;37.532;2023-05-13T03:08:25;8.45;;;4.40;;
43297;SDS011;28892;55.640;37.532;2023-05-13T03:10:52;8.32;;;5.05;;
43297;SDS011;28892;55.640;37.532;2023-05-13T03:13:21;9.27;;;5.07;;
43297;SDS011;28892;55.640;37.532;2023-05-13T03:15:47;9.20;;;4.82;;
43297;SDS011;28892;55.640;37.532;2023-05-13T03:18:13;7.97;;;4.55;;
43297;SDS011;28892;55.640;37.532;2023-05-13T03:20:47;11.48;;;4.82;;
43297;SDS011;28892;55.640;37.532;2023-05-13T03:23:24;11.68;;;5.00;;
43297;SDS011;28892;55.640;37.532;2023-05-13T03:25:55;7.80;;;4.93;;
43297;SDS011;28892;55.640;37.532;2023-05-13T03:28:35;8.57;;;5.20;;
43297;SDS011;28892;55.640;37.532;2023-05-13T03:31:04;11.90;;;5.00;;
43297;SDS011;28892;55.640;37.532;2023-05-13T03:33:38;8.88;;;5.75;;
43297;SDS011;28892;55.640;37.532;2023-05-13T03:36:10;10.40;;;4.95;;
43297;SDS011;28892;55.640;37.532;2023-05-13T03:38:36;7.00;;;4.70;;
43297;SDS011;28892;55.640;37.532;2023-05-13T03:41:02;7.03;;;4.50;;
43297;SDS011;28892;55.640;37.532;2023-05-13T03:43:28;6.32;;;4.55;;
43297;SDS011;28892;55.640;37.532;2023-05-13T03:46:09;5.88;;;4.47;;
43297;SDS011;28892;55.640;37.532;2023-05-13T03:48:46;9.93;;;4.95;;
43297;SDS011;28892;55.640;37.532;2023-05-13T03:51:13;7.47;;;4.25;;
43297;SDS011;28892;55.640;37.532;2023-05-13T03:53:39;6.10;;;4.60;;
43297;SDS011;28892;55.640;37.532;2023-05-13T03:56:05;8.68;;;4.75;;
43297;SDS011;28892;55.640;37.532;2023-05-13T03:58:34;9.00;;;5.10;;
43297;SDS011;28892;55.640;37.532;2023-05-13T04:01:03;9.07;;;4.60;;
43297;SDS011;28892;55.640;37.532;2023-05-13T04:03:29;7.80;;;4.38;;
43297;SDS011;28892;55.640;37.532;2023-05-13T04:05:55;6.80;;;4.75;;
43297;SDS011;28892;55.640;37.532;2023-05-13T04:08:21;8.07;;;4.70;;
43297;SDS011;28892;55.640;37.532;2023-05-13T04:10:48;8.15;;;4.80;;
43297;SDS011;28892;55.640;37.532;2023-05-13T04:13:13;8.82;;;4.65;;
43297;SDS011;28892;55.640;37.532;2023-05-13T04:15:39;10.40;;;4.30;;
43297;SDS011;28892;55.640;37.532;2023-05-13T04:18:05;7.32;;;4.40;;
43297;SDS011;28892;55.640;37.532;2023-05-13T04:20:33;7.97;;;4.80;;
43297;SDS011;28892;55.640;37.532;2023-05-13T04:23:00;8.95;;;4.47;;
43297;SDS011;28892;55.640;37.532;2023-05-13T04:25:33;10.23;;;4.73;;
43297;SDS011;28892;55.640;37.532;2023-05-13T04:28:04;7.05;;;4.60;;
43297;SDS011;28892;55.640;37.532;2023-05-13T04:30:38;8.88;;;4.18;;
43297;SDS011;28892;55.640;37.532;2023-05-13T04:33:07;8.20;;;4.50;;
43297;SDS011;28892;55.640;37.532;2023-05-13T04:35:35;7.82;;;4.43;;
43297;SDS011;28892;55.640;37.532;2023-05-13T04:38:03;10.00;;;4.38;;
43297;SDS011;28892;55.640;37.532;2023-05-13T04:40:32;14.85;;;4.90;;
43297;SDS011;28892;55.640;37.532;2023-05-13T04:43:07;11.45;;;4.25;;
43297;SDS011;28892;55.640;37.532;2023-05-13T04:48:19;5.15;;;3.75;;
43297;SDS011;28892;55.640;37.532;2023-05-13T04:50:45;8.95;;;4.53;;
43297;SDS011;28892;55.640;37.532;2023-05-13T04:53:12;10.63;;;4.90;;
43297;SDS011;28892;55.640;37.532;2023-05-13T04:55:38;9.70;;;4.30;;
43297;SDS011;28892;55.640;37.532;2023-05-13T04:58:04;8.20;;;4.03;;
43297;SDS011;28892;55.640;37.532;2023-05-13T05:00:31;13.05;;;4.20;;
43297;SDS011;28892;55.640;37.532;2023-05-13T05:03:00;12.13;;;4.30;;
43297;SDS011;28892;55.640;37.532;2023-05-13T05:05:28;8.98;;;4.10;;
43297;SDS011;28892;55.640;37.532;2023-05-13T05:07:57;11.10;;;4.60;;
43297;SDS011;28892;55.640;37.532;2023-05-13T05:10:24;8.65;;;4.22;;
43297;SDS011;28892;55.640;37.532;2023-05-13T05:12:58;6.65;;;3.78;;
43297;SDS011;28892;55.640;37.532;2023-05-13T05:15:32;7.30;;;3.97;;
43297;SDS011;28892;55.640;37.532;2023-05-13T05:18:00;7.40;;;3.85;;
43297;SDS011;28892;55.640;37.532;2023-05-13T05:20:26;10.23;;;3.90;;
43297;SDS011;28892;55.640;37.532;2023-05-13T05:22:56;7.82;;;3.97;;
43297;SDS011;28892;55.640;37.532;2023-05-13T05:28:54;5.28;;;2.97;;
43297;SDS011;28892;55.640;37.532;2023-05-13T05:31:23;6.32;;;3.20;;
43297;SDS011;28892;55.640;37.532;2023-05-13T05:33:57;12.70;;;3.25;;
43297;SDS011;28892;55.640;37.532;2023-05-13T05:36:52;7.07;;;3.22;;
43297;SDS011;28892;55.640;37.532;2023-05-13T05:40:12;5.82;;;3.28;;
43297;SDS011;28892;55.640;37.532;2023-05-13T05:42:48;8.85;;;4.05;;
43297;SDS011;28892;55.640;37.532;2023-05-13T05:45:21;6.32;;;3.10;;
43297;SDS011;28892;55.640;37.532;2023-05-13T05:47:51;7.22;;;3.10;;
43297;SDS011;28892;55.640;37.532;2023-05-13T05:50:20;4.43;;;2.72;;
43297;SDS011;28892;55.640;37.532;2023-05-13T05:52:49;6.15;;;3.17;;
43297;SDS011;28892;55.640;37.532;2023-05-13T05:55:15;5.25;;;3.10;;
43297;SDS011;28892;55.640;37.532;2023-05-13T05:57:41;4.82;;;3.15;;
43297;SDS011;28892;55.640;37.532;2023-05-13T06:00:09;7.43;;;3.25;;
43297;SDS011;28892;55.640;37.532;2023-05-13T06:02:41;9.70;;;3.20;;
43297;SDS011;28892;55.640;37.532;2023-05-13T06:05:08;7.78;;;3.63;;
43297;SDS011;28892;55.640;37.532;2023-05-13T06:07:37;9.45;;;3.28;;
43297;SDS011;28892;55.640;37.532;2023-05-13T06:10:03;6.35;;;3.63;;
43297;SDS011;28892;55.640;37.532;2023-05-13T06:12:31;7.78;;;4.85;;
43297;SDS011;28892;55.640;37.532;2023-05-13T06:14:57;11.73;;;8.98;;
43297;SDS011;28892;55.640;37.532;2023-05-13T06:17:24;8.32;;;6.55;;
43297;SDS011;28892;55.640;37.532;2023-05-13T06:19:50;12.95;;;6.38;;
43297;SDS011;28892;55.640;37.532;2023-05-13T06:22:17;7.03;;;4.32;;
43297;SDS011;28892;55.640;37.532;2023-05-13T06:24:50;7.53;;;4.22;;
43297;SDS011;28892;55.640;37.532;2023-05-13T06:27:16;10.18;;;6.00;;
43297;SDS011;28892;55.640;37.532;2023-05-13T06:29:42;7.72;;;5.75;;
43297;SDS011;28892;55.640;37.532;2023-05-13T06:32:09;11.05;;;4.05;;
43297;SDS011;28892;55.640;37.532;2023-05-13T06:34:35;7.93;;;5.70;;
43297;SDS011;28892;55.640;37.532;2023-05-13T06:37:03;8.40;;;4.47;;
43297;SDS011;28892;55.640;37.532;2023-05-13T06:39:29;6.05;;;4.35;;
43297;SDS011;28892;55.640;37.532;2023-05-13T06:41:55;10.40;;;6.90;;
43297;SDS011;28892;55.640;37.532;2023-05-13T06:44:28;8.25;;;3.67;;
43297;SDS011;28892;55.640;37.532;2023-05-13T06:46:57;6.75;;;3.50;;
43297;SDS011;28892;55.640;37.532;2023-05-13T06:49:27;6.40;;;3.22;;
43297;SDS011;28892;55.640;37.532;2023-05-13T06:51:53;8.93;;;4.70;;
43297;SDS011;28892;55.640;37.532;2023-05-13T06:54:18;8.00;;;3.08;;
43297;SDS011;28892;55.640;37.532;2023-05-13T06:56:44;5.78;;;3.22;;
43297;SDS011;28892;55.640;37.532;2023-05-13T06:59:10;7.40;;;2.75;;
43297;SDS011;28892;55.640;37.532;2023-05-13T07:01:37;6.38;;;2.90;;
43297;SDS011;28892;55.640;37.532;2023-05-13T07:04:06;7.97;;;3.30;;
43297;SDS011;28892;55.640;37.532;2023-05-13T07:09:22;7.90;;;2.85;;
43297;SDS011;28892;55.640;37.532;2023-05-13T07:11:52;6.20;;;2.95;;
43297;SDS011;28892;55.640;37.532;2023-05-13T07:14:18;6.68;;;3.10;;
43297;SDS011;28892;55.640;37.532;2023-05-13T07:16:51;8.48;;;3.10;;
43297;SDS011;28892;55.640;37.532;2023-05-13T07:19:19;9.05;;;3.30;;
43297;SDS011;28892;55.640;37.532;2023-05-13T07:21:46;11.45;;;3.22;;
43297;SDS011;28892;55.640;37.532;2023-05-13T07:24:12;7.82;;;3.38;;
43297;SDS011;28892;55.640;37.532;2023-05-13T07:26:39;5.07;;;3.38;;
43297;SDS011;28892;55.640;37.532;2023-05-13T07:29:05;10.07;;;3.78;;
43297;SDS011;28892;55.640;37.532;2023-05-13T07:36:43;4.70;;;3.30;;
43297;SDS011;28892;55.640;37.532;2023-05-13T07:39:50;8.63;;;4.00;;
43297;SDS011;28892;55.640;37.532;2023-05-13T07:42:18;7.32;;;4.10;;
43297;SDS011;28892;55.640;37.532;2023-05-13T07:44:44;11.25;;;4.95;;
43297;SDS011;28892;55.640;37.532;2023-05-13T07:47:12;8.50;;;5.45;;
43297;SDS011;28892;55.640;37.532;2023-05-13T07:49:45;9.82;;;4.43;;
43297;SDS011;28892;55.640;37.532;2023-05-13T07:52:13;8.00;;;3.55;;
43297;SDS011;28892;55.640;37.532;2023-05-13T07:55:47;5.70;;;3.60;;
43297;SDS011;28892;55.640;37.532;2023-05-13T08:01:35;7.68;;;3.35;;
43297;SDS011;28892;55.640;37.532;2023-05-13T08:04:01;7.25;;;3.00;;
43297;SDS011;28892;55.640;37.532;2023-05-13T08:06:48;6.95;;;2.90;;
43297;SDS011;28892;55.640;37.532;2023-05-13T08:09:24;7.28;;;3.83;;
43297;SDS011;28892;55.640;37.532;2023-05-13T08:12:08;12.57;;;4.00;;
43297;SDS011;28892;55.640;37.532;2023-05-13T08:14:50;8.52;;;3.42;;
43297;SDS011;28892;55.640;37.532;2023-05-13T08:17:30;10.02;;;3.05;;
43297;SDS011;28892;55.640;37.532;2023-05-13T08:23:07;12.13;;;3.33;;
43297;SDS011;28892;55.640;37.532;2023-05-13T08:25:39;7.70;;;3.20;;
43297;SDS011;28892;55.640;37.532;2023-05-13T08:28:26;5.13;;;3.03;;
43297;SDS011;28892;55.640;37.532;2023-05-13T08:31:01;6.10;;;2.85;;
43297;SDS011;28892;55.640;37.532;2023-05-13T08:39:57;4.18;;;2.40;;
43297;SDS011;28892;55.640;37.532;2023-05-13T08:42:30;9.82;;;3.67;;
43297;SDS011;28892;55.640;37.532;2023-05-13T08:44:58;10.02;;;2.90;;
43297;SDS011;28892;55.640;37.532;2023-05-13T08:50:04;4.65;;;2.75;;
43297;SDS011;28892;55.640;37.532;2023-05-13T08:52:34;7.75;;;2.72;;
43297;SDS011;28892;55.640;37.532;2023-05-13T08:55:00;5.95;;;2.58;;
43297;SDS011;28892;55.640;37.532;2023-05-13T08:57:32;6.25;;;2.80;;
43297;SDS011;28892;55.640;37.532;2023-05-13T08:59:58;4.45;;;2.50;;
43297;SDS011;28892;55.640;37.532;2023-05-13T09:05:43;3.72;;;2.67;;
43297;SDS011;28892;55.640;37.532;2023-05-13T09:08:44;6.57;;;2.50;;
43297;SDS011;28892;55.640;37.532;2023-05-13T09:11:24;7.43;;;3.00;;
43297;SDS011;28892;55.640;37.532;2023-05-13T09:14:02;5.85;;;2.67;;
43297;SDS011;28892;55.640;37.532;2023-05-13T09:16:35;4.63;;;2.53;;
43297;SDS011;28892;55.640;37.532;2023-05-13T09:19:20;6.07;;;2.58;;
43297;SDS011;28892;55.640;37.532;2023-05-13T09:21:52;7.25;;;2.90;;
43297;SDS011;28892;55.640;37.532;2023-05-13T09:24:26;5.95;;;2.53;;
43297;SDS011;28892;55.640;37.532;2023-05-13T09:26:59;8.68;;;3.13;;
43297;SDS011;28892;55.640;37.532;2023-05-13T09:29:31;5.20;;;2.28;;
43297;SDS011;28892;55.640;37.532;2023-05-13T09:35:20;8.05;;;2.97;;
43297;SDS011;28892;55.640;37.532;2023-05-13T09:45:56;5.70;;;2.47;;
43297;SDS011;28892;55.640;37.532;2023-05-13T09:48:51;5.88;;;2.92;;
43297;SDS011;28892;55.640;37.532;2023-05-13T09:52:31;7.93;;;2.90;;
43297;SDS011;28892;55.640;37.532;2023-05-13T09:59:25;4.10;;;2.80;;
43297;SDS011;28892;55.640;37.532;2023-05-13T10:12:26;8.30;;;2.75;;
43297;SDS011;28892;55.640;37.532;2023-05-13T10:14:56;4.15;;;2.75;;
43297;SDS011;28892;55.640;37.532;2023-05-13T10:18:43;4.15;;;2.30;;
43297;SDS011;28892;55.640;37.532;2023-05-13T10:21:42;5.63;;;2.85;;
43297;SDS011;28892;55.640;37.532;2023-05-13T10:24:08;6.47;;;2.65;;
43297;SDS011;28892;55.640;37.532;2023-05-13T10:27:02;5.57;;;2.90;;
43297;SDS011;28892;55.640;37.532;2023-05-13T10:33:52;4.07;;;2.65;;
43297;SDS011;28892;55.640;37.532;2023-05-13T10:43:22;9.35;;;2.75;;
43297;SDS011;28892;55.640;37.532;2023-05-13T10:46:00;7.70;;;2.72;;
43297;SDS011;28892;55.640;37.532;2023-05-13T10:48:36;5.25;;;2.63;;
43297;SDS011;28892;55.640;37.532;2023-05-13T10:51:12;4.35;;;2.38;;
43297;SDS011;28892;55.640;37.532;2023-05-13T10:53:43;7.53;;;2.60;;
43297;SDS011;28892;55.640;37.532;2023-05-13T10:56:16;7.57;;;3.65;;
43297;SDS011;28892;55.640;37.532;2023-05-13T10:59:04;3.47;;;2.38;;
43297;SDS011;28892;55.640;37.532;2023-05-13T11:04:11;4.82;;;2.50;;
43297;SDS011;28892;55.640;37.532;2023-05-13T11:06:41;3.97;;;2.70;;
43297;SDS011;28892;55.640;37.532;2023-05-13T11:09:11;2.83;;;2.30;;
43297;SDS011;28892;55.640;37.532;2023-05-13T11:19:34;9.57;;;2.88;;
43297;SDS011;28892;55.640;37.532;2023-05-13T11:27:37;5.18;;;2.78;;
43297;SDS011;28892;55.640;37.532;2023-05-13T11:30:07;5.53;;;3.38;;
43297;SDS011;28892;55.640;37.532;2023-05-13T11:37:51;6.32;;;4.55;;
43297;SDS011;28892;55.640;37.532;2023-05-13T11:40:21;9.68;;;4.97;;
43297;SDS011;28892;55.640;37.532;2023-05-13T11:42:48;6.68;;;3.60;;
43297;SDS011;28892;55.640;37.532;2023-05-13T11:45:17;7.90;;;3.00;;
43297;SDS011;28892;55.640;37.532;2023-05-13T11:47:45;4.47;;;2.60;;
43297;SDS011;28892;55.640;37.532;2023-05-13T11:50:17;7.68;;;2.83;;
43297;SDS011;28892;55.640;37.532;2023-05-13T11:52:50;6.55;;;3.00;;
43297;SDS011;28892;55.640;37.532;2023-05-13T11:55:23;9.82;;;2.85;;
43297;SDS011;28892;55.640;37.532;2023-05-13T11:57:52;3.75;;;2.70;;
43297;SDS011;28892;55.640;37.532;2023-05-13T12:00:27;5.00;;;2.80;;
43297;SDS011;28892;55.640;37.532;2023-05-13T12:02:58;8.60;;;2.70;;
43297;SDS011;28892;55.640;37.532;2023-05-13T12:05:27;8.00;;;2.90;;
43297;SDS011;28892;55.640;37.532;2023-05-13T12:07:57;5.32;;;3.17;;
43297;SDS011;28892;55.640;37.532;2023-05-13T12:10:24;8.00;;;3.40;;
43297;SDS011;28892;55.640;37.532;2023-05-13T12:12:50;7.07;;;3.22;;
43297;SDS011;28892;55.640;37.532;2023-05-13T12:15:22;4.30;;;2.38;;
43297;SDS011;28892;55.640;37.532;2023-05-13T12:17:51;7.03;;;3.08;;
43297;SDS011;28892;55.640;37.532;2023-05-13T12:20:19;12.90;;;3.75;;
43297;SDS011;28892;55.640;37.532;2023-05-13T12:23:01;8.68;;;3.38;;
43297;SDS011;28892;55.640;37.532;2023-05-13T12:25:47;4.72;;;3.08;;
43297;SDS011;28892;55.640;37.532;2023-05-13T12:28:39;4.32;;;2.50;;
43297;SDS011;28892;55.640;37.532;2023-05-13T12:31:14;6.28;;;2.90;;
43297;SDS011;28892;55.640;37.532;2023-05-13T12:33:54;4.25;;;2.90;;
43297;SDS011;28892;55.640;37.532;2023-05-13T12:36:38;4.93;;;3.25;;
43297;SDS011;28892;55.640;37.532;2023-05-13T12:39:05;9.32;;;4.32;;
43297;SDS011;28892;55.640;37.532;2023-05-13T12:42:50;6.38;;;2.95;;
43297;SDS011;28892;55.640;37.532;2023-05-13T12:45:16;6.03;;;3.20;;
43297;SDS011;28892;55.640;37.532;2023-05-13T12:47:47;6.28;;;3.40;;
43297;SDS011;28892;55.640;37.532;2023-05-13T12:50:42;7.88;;;2.85;;
43297;SDS011;28892;55.640;37.532;2023-05-13T12:53:18;4.75;;;2.53;;
43297;SDS011;28892;55.640;37.532;2023-05-13T12:55:44;4.88;;;2.80;;
43297;SDS011;28892;55.640;37.532;2023-05-13T12:58:10;6.45;;;2.80;;
43297;SDS011;28892;55.640;37.532;2023-05-13T13:00:37;6.05;;;3.00;;
43297;SDS011;28892;55.640;37.532;2023-05-13T13:03:03;4.93;;;2.40;;
43297;SDS011;28892;55.640;37.532;2023-05-13T13:05:30;2.88;;;2.20;;
43297;SDS011;28892;55.640;37.532;2023-05-13T13:07:59;4.18;;;2.20;;
43297;SDS011;28892;55.640;37.532;2023-05-13T13:10:29;4.90;;;3.25;;
43297;SDS011;28892;55.640;37.532;2023-05-13T13:12:56;10.40;;;3.15;;
43297;SDS011;28892;55.640;37.532;2023-05-13T13:15:22;8.60;;;3.85;;
43297;SDS011;28892;55.640;37.532;2023-05-13T13:17:50;7.20;;;2.75;;
43297;SDS011;28892;55.640;37.532;2023-05-13T13:20:22;8.93;;;3.00;;
43297;SDS011;28892;55.640;37.532;2023-05-13T13:22:48;7.95;;;2.55;;
43297;SDS011;28892;55.640;37.532;2023-05-13T13:25:14;3.38;;;2.20;;
43297;SDS011;28892;55.640;37.532;2023-05-13T13:27:40;6.10;;;2.72;;
43297;SDS011;28892;55.640;37.532;2023-05-13T13:30:06;4.10;;;2.78;;
43297;SDS011;28892;55.640;37.532;2023-05-13T13:32:36;5.38;;;3.20;;
43297;SDS011;28892;55.640;37.532;2023-05-13T13:35:05;3.72;;;2.63;;
43297;SDS011;28892;55.640;37.532;2023-05-13T13:37:31;3.65;;;2.67;;
43297;SDS011;28892;55.640;37.532;2023-05-13T13:40:08;3.38;;;2.58;;
43297;SDS011;28892;55.640;37.532;2023-05-13T13:42:49;6.13;;;2.65;;
43297;SDS011;28892;55.640;37.532;2023-05-13T13:45:15;5.20;;;2.70;;
43297;SDS011;28892;55.640;37.532;2023-05-13T13:47:41;8.13;;;2.75;;
43297;SDS011;28892;55.640;37.532;2023-05-13T13:50:07;5.90;;;2.45;;
43297;SDS011;28892;55.640;37.532;2023-05-13T13:52:33;3.78;;;2.40;;
43297;SDS011;28892;55.640;37.532;2023-05-13T13:54:59;6.32;;;2.45;;
43297;SDS011;28892;55.640;37.532;2023-05-13T13:57:25;6.28;;;3.13;;
43297;SDS011;28892;55.640;37.532;2023-05-13T13:59:54;4.63;;;2.90;;
43297;SDS011;28892;55.640;37.532;2023-05-13T14:04:55;7.07;;;4.20;;
43297;SDS011;28892;55.640;37.532;2023-05-13T14:07:29;7.95;;;3.10;;
43297;SDS011;28892;55.640;37.532;2023-05-13T14:09:55;6.53;;;2.70;;
43297;SDS011;28892;55.640;37.532;2023-05-13T14:12:24;7.05;;;2.67;;
43297;SDS011;28892;55.640;37.532;2023-05-13T14:14:58;5.45;;;2.88;;
43297;SDS011;28892;55.640;37.532;2023-05-13T14:17:24;7.07;;;2.40;;
43297;SDS011;28892;55.640;37.532;2023-05-13T14:19:50;5.30;;;2.60;;
43297;SDS011;28892;55.640;37.532;2023-05-13T14:22:21;4.60;;;2.60;;
43297;SDS011;28892;55.640;37.532;2023-05-13T14:27:28;5.88;;;3.08;;
43297;SDS011;28892;55.640;37.532;2023-05-13T14:29:54;7.50;;;3.10;;
43297;SDS011;28892;55.640;37.532;2023-05-13T14:32:32;6.72;;;2.78;;
43297;SDS011;28892;55.640;37.532;2023-05-13T14:35:01;5.43;;;2.95;;
43297;SDS011;28892;55.640;37.532;2023-05-13T14:37:30;3.88;;;3.42;;
43297;SDS011;28892;55.640;37.532;2023-05-13T14:39:58;6.53;;;2.60;;
43297;SDS011;28892;55.640;37.532;2023-05-13T14:42:29;7.57;;;3.15;;
43297;SDS011;28892;55.640;37.532;2023-05-13T14:44:55;4.50;;;2.90;;
43297;SDS011;28892;55.640;37.532;2023-05-13T14:47:21;4.53;;;3.00;;
43297;SDS011;28892;55.640;37.532;2023-05-13T14:49:47;4.13;;;2.90;;
43297;SDS011;28892;55.640;37.532;2023-05-13T14:52:13;5.43;;;2.55;;
43297;SDS011;28892;55.640;37.532;2023-05-13T14:54:39;4.68;;;2.78;;
43297;SDS011;28892;55.640;37.532;2023-05-13T14:57:47;6.13;;;2.70;;
43297;SDS011;28892;55.640;37.532;2023-05-13T15:00:14;5.13;;;2.65;;
43297;SDS011;28892;55.640;37.532;2023-05-13T15:02:52;4.85;;;2.72;;
43297;SDS011;28892;55.640;37.532;2023-05-13T15:05:23;5.20;;;2.70;;
43297;SDS011;28892;55.640;37.532;2023-05-13T15:07:51;5.93;;;2.72;;
43297;SDS011;28892;55.640;37.532;2023-05-13T15:10:24;5.40;;;3.08;;
43297;SDS011;28892;55.640;37.532;2023-05-13T15:12:56;4.75;;;2.60;;
43297;SDS011;28892;55.640;37.532;2023-05-13T15:16:04;6.18;;;2.50;;
43297;SDS011;28892;55.640;37.532;2023-05-13T15:18:31;3.83;;;2.70;;
43297;SDS011;28892;55.640;37.532;2023-05-13T15:21:09;3.58;;;2.60;;
43297;SDS011;28892;55.640;37.532;2023-05-13T15:23:37;4.45;;;2.60;;
43297;SDS011;28892;55.640;37.532;2023-05-13T15:26:03;6.05;;;2.50;;
43297;SDS011;28892;55.640;37.532;2023-05-13T15:28:29;8.10;;;2.97;;
43297;SDS011;28892;55.640;37.532;2023-05-13T15:31:01;9.80;;;3.70;;
43297;SDS011;28892;55.640;37.532;2023-05-13T15:33:33;5.07;;;2.75;;
43297;SDS011;28892;55.640;37.532;2023-05-13T15:36:06;6.20;;;3.20;;
43297;SDS011;28892;55.640;37.532;2023-05-13T15:39:08;3.40;;;3.05;;
43297;SDS011;28892;55.640;37.532;2023-05-13T15:41:43;5.53;;;2.80;;
43297;SDS011;28892;55.640;37.532;2023-05-13T15:44:09;5.32;;;2.55;;
43297;SDS011;28892;55.640;37.532;2023-05-13T15:47:09;5.85;;;3.17;;
43297;SDS011;28892;55.640;37.532;2023-05-13T15:49:57;5.32;;;2.92;;
43297;SDS011;28892;55.640;37.532;2023-05-13T15:53:06;4.35;;;2.70;;
43297;SDS011;28892;55.640;37.532;2023-05-13T15:55:55;6.30;;;2.60;;
43297;SDS011;28892;55.640;37.532;2023-05-13T15:58:24;5.20;;;2.53;;
43297;SDS011;28892;55.640;37.532;2023-05-13T16:00:50;4.18;;;2.38;;
43297;SDS011;28892;55.640;37.532;2023-05-13T16:03:16;4.53;;;2.58;;
43297;SDS011;28892;55.640;37.532;2023-05-13T16:05:42;5.22;;;2.80;;
43297;SDS011;28892;55.640;37.532;2023-05-13T16:08:08;4.43;;;2.70;;
43297;SDS011;28892;55.640;37.532;2023-05-13T16:10:37;5.00;;;2.63;;
43297;SDS011;28892;55.640;37.532;2023-05-13T16:13:03;8.40;;;3.15;;
43297;SDS011;28892;55.640;37.532;2023-05-13T16:15:51;6.90;;;3.38;;
43297;SDS011;28892;55.640;37.532;2023-05-13T16:18:33;10.25;;;4.53;;
43297;SDS011;28892;55.640;37.532;2023-05-13T16:21:02;6.30;;;3.88;;
43297;SDS011;28892;55.640;37.532;2023-05-13T16:23:28;6.20;;;3.22;;
43297;SDS011;28892;55.640;37.532;2023-05-13T16:25:59;6.05;;;3.20;;
43297;SDS011;28892;55.640;37.532;2023-05-13T16:28:42;7.75;;;3.35;;
43297;SDS011;28892;55.640;37.532;2023-05-13T16:31:19;8.82;;;3.50;;
43297;SDS011;28892;55.640;37.532;2023-05-13T16:33:47;6.87;;;3.47;;
43297;SDS011;28892;55.640;37.532;2023-05-13T16:39:39;9.13;;;3.85;;
43297;SDS011;28892;55.640;37.532;2023-05-13T16:42:05;9.95;;;4.10;;
43297;SDS011;28892;55.640;37.532;2023-05-13T16:44:31;8.25;;;2.95;;
43297;SDS011;28892;55.640;37.532;2023-05-13T16:47:01;7.57;;;2.92;;
43297;SDS011;28892;55.640;37.532;2023-05-13T16:49:27;4.63;;;3.05;;
43297;SDS011;28892;55.640;37.532;2023-05-13T16:51:55;8.90;;;3.53;;
43297;SDS011;28892;55.640;37.532;2023-05-13T16:54:21;5.15;;;3.40;;
43297;SDS011;28892;55.640;37.532;2023-05-13T16:56:50;10.23;;;3.42;;
43297;SDS011;28892;55.640;37.532;2023-05-13T16:59:43;4.68;;;2.92;;
43297;SDS011;28892;55.640;37.532;2023-05-13T17:02:15;6.53;;;3.20;;
43297;SDS011;28892;55.640;37.532;2023-05-13T17:05:22;7.47;;;3.30;;
43297;SDS011;28892;55.640;37.532;2023-05-13T17:07:57;6.85;;;3.30;;
43297;SDS011;28892;55.640;37.532;2023-05-13T17:10:31;10.07;;;3.47;;
43297;SDS011;28892;55.640;37.532;2023-05-13T17:13:03;6.25;;;3.55;;
43297;SDS011;28892;55.640;37.532;2023-05-13T17:15:50;7.95;;;3.35;;
43297;SDS011;28892;55.640;37.532;2023-05-13T17:18:16;8.02;;;3.38;;